Pisgah Forest, NC (28768)

07:54 AM EST del 07 Febbraio 2016 (GMT -0500)
Pisgah Center Self Storage | | Change Station
CLOSE
Current Station
Stazione meteo personale
Location: Pisgah Forest, NC
Altitudine: 2159 ft
Stazioni meteo nelle vicinanze

Alt. 2159 ft 35.27 °N, 82.70 °W | Updated 15 minutes ago

Molto nuvoloso
Molto nuvoloso
20.3 °F
Sembra 20 °F
N
1.6
Vento Variabile Vento da ENE

Oggi
Massima -- | Minima -- °F
--% Possibilità di precip.
Ieri
Massima -- | Minima -- °F
Precip. -- in
Pressione 30.12 in
Visibilità 10.0 miglia
Nuvole Sereno
Raffreddamento del vento 20 °F
Punto di rugiada 20 °F
Umidità 99%
Piovosità 0.00 in
Spessore del manto nevoso Non disponibile.
7:25 AM 6:04 PM
Luna calante, 2% visible
METAR KAVL 071154Z 35009KT 10SM CLR M01/M09 A3009 RMK AO2 SLP197 T10111089 10000 21017 56010
Pressione 30.12 in
Visibilità 10.0 miglia
Nuvole Sereno
Raffreddamento del vento 20 °F
Punto di rugiada 20 °F
Umidità 99%
Piovosità 0.00 in
Spessore del manto nevoso Non disponibile.
7:25 AM 6:04 PM
Luna calante, 2% visible
METAR KAVL 071154Z 35009KT 10SM CLR M01/M09 A3009 RMK AO2 SLP197 T10111089 10000 21017 56010

10-Day Weather Forecast

Almanac

Astronomia

Feb. 07, 2016 Alba Tramonto
Ora attuale
Crepuscolo civile
Crepuscolo nautico
Crepuscolo astronomico
Luna
Estensione della luce visibile
Lunghezza del giorno
Tomorrow will be .
, % of the Moon is Illuminated

Gli estremi di oggi

State Highs State Lows

Community

WunderPhotos

Upload Photos

1,891,189 foto caricate!

WunderBlog® & News

Nearby

Qualità dell'aria

  Qualità dell'aria Indice AQ Inquinante
Not available.

Profondità neve

Stazione Profondità Altitudine

Attività sismica

Città  Distanza Mag. Data & Ora
Minimo Magnitudo Mostrato è 2.5.

Temperature delle acque costiere

Località Temperatura

Stations

Stazioni meteo nelle vicinanze

Ubicazione della stazione Temp. Raffreddamento del vento Punto di rugiada Umidità Vento Precip. Alt. Aggiornato Tipo
                   

Watches & Warnings

There are currently no watches in effect.